Time;durP1;ratioP1;P1;durP2;ratioP2;P2;SDS_P1;SDS_P2;PMS_P1;PMS_P2;Temp;Humidity;BMP_temperature;BMP_pressure;BME280_temperature;BME280_humidity;BME280_pressure;Samples;Min_cycle;Max_cycle;Signal;HPM_P1;HPM_P2
2022/08/31 00:05:42;;;;;;;2.80;2.23;;;;;;;25.26;34.96;97368.34;4954613;28;20264;-76
2022/08/31 00:08:07;;;;;;;2.88;2.20;;;;;;;25.29;35.21;97373.78;4967487;28;20211;-76
2022/08/31 00:10:34;;;;;;;3.00;2.38;;;;;;;25.34;35.12;97375.44;4952030;28;20676;-76
2022/08/31 00:12:59;;;;;;;3.60;2.15;;;;;;;25.38;34.91;97369.13;4950740;28;20203;-76
2022/08/31 00:15:25;;;;;;;3.28;2.35;;;;;;;25.36;35.32;97379.34;4968431;28;20235;-76
2022/08/31 00:17:52;;;;;;;3.40;2.60;;;;;;;25.35;34.87;97374.34;4976286;28;20363;-76
2022/08/31 00:20:19;;;;;;;4.15;2.45;;;;;;;25.39;34.94;97372.53;4951000;28;21877;-76
2022/08/31 00:22:45;;;;;;;3.20;2.13;;;;;;;25.34;35.50;97375.44;4958489;28;20180;-76
2022/08/31 00:25:12;;;;;;;3.72;2.08;;;;;;;25.24;35.68;97381.97;4970772;28;20211;-76
2022/08/31 00:27:38;;;;;;;4.63;2.40;;;;;;;25.17;36.10;97381.75;4952966;28;20341;-76
2022/08/31 00:30:07;;;;;;;4.05;2.38;;;;;;;25.00;36.32;97378.25;4932926;28;20240;-76
2022/08/31 00:32:33;;;;;;;2.13;1.92;;;;;;;25.08;36.56;97379.22;4931702;28;20291;-76
2022/08/31 00:34:59;;;;;;;3.95;2.60;;;;;;;25.01;36.70;97379.78;4947958;28;20200;-76
2022/08/31 00:37:24;;;;;;;2.55;2.35;;;;;;;24.95;36.93;97386.47;4948322;28;20196;-76
2022/08/31 00:39:51;;;;;;;3.45;2.60;;;;;;;24.91;37.42;97382.13;4933255;28;20227;-76
2022/08/31 00:42:16;;;;;;;2.75;2.28;;;;;;;24.88;37.11;97380.13;4948020;28;20334;-76
2022/08/31 00:44:42;;;;;;;3.60;2.25;;;;;;;24.85;37.96;97377.00;4938847;28;20160;-76
2022/08/31 00:47:09;;;;;;;4.10;2.63;;;;;;;24.76;38.62;97378.22;4957219;28;20136;-76
2022/08/31 00:49:37;;;;;;;6.95;2.90;;;;;;;24.68;39.38;97382.56;4988571;28;20628;-76
2022/08/31 00:52:05;;;;;;;3.85;2.72;;;;;;;24.63;38.75;97380.13;4951255;28;20649;-76
2022/08/31 00:54:43;;;;;;;3.38;2.92;;;;;;;24.47;39.61;97372.75;4967318;28;20274;-76
2022/08/31 00:57:09;;;;;;;3.75;2.50;;;;;;;24.60;39.48;97375.44;4949594;28;20863;-76
2022/08/31 00:59:37;;;;;;;3.90;2.58;;;;;;;24.54;39.53;97374.91;4968096;28;20281;-76
2022/08/31 01:02:03;;;;;;;3.03;2.70;;;;;;;24.57;40.15;97376.09;4949248;28;20571;-76
2022/08/31 01:04:29;;;;;;;3.10;2.80;;;;;;;24.58;40.57;97372.34;4932545;28;20311;-76
2022/08/31 01:06:54;;;;;;;5.80;3.42;;;;;;;24.60;41.32;97376.22;4931490;28;20188;-76
2022/08/31 01:09:21;;;;;;;4.82;3.45;;;;;;;24.60;41.90;97372.78;4933791;28;20647;-76
2022/08/31 01:11:56;;;;;;;3.50;3.20;;;;;;;24.55;42.32;97370.34;4972459;28;20218;-76
2022/08/31 01:14:21;;;;;;;3.80;3.03;;;;;;;24.67;42.46;97359.69;4967660;28;20214;-76
2022/08/31 01:16:52;;;;;;;3.25;2.95;;;;;;;24.60;42.62;97364.78;4933599;28;20208;-76
2022/08/31 01:19:30;;;;;;;3.90;3.05;;;;;;;24.57;43.25;97360.13;4945321;28;20299;-76
2022/08/31 01:22:11;;;;;;;5.03;3.50;;;;;;;24.73;42.87;97366.38;4947284;28;20278;-76
2022/08/31 01:24:39;;;;;;;6.07;3.88;;;;;;;24.70;43.15;97360.94;4937922;28;20184;-76
2022/08/31 01:27:06;;;;;;;4.32;3.38;;;;;;;24.73;43.37;97369.03;4966788;28;20304;-76
2022/08/31 01:29:33;;;;;;;4.82;3.20;;;;;;;24.67;43.83;97365.03;4955976;28;20241;-76
2022/08/31 01:31:58;;;;;;;4.20;3.80;;;;;;;24.67;44.56;97373.78;4967467;28;20309;-76
2022/08/31 01:34:23;;;;;;;4.68;3.53;;;;;;;24.52;45.10;97376.28;4947070;28;20371;-76
2022/08/31 01:36:50;;;;;;;4.80;3.63;;;;;;;24.51;45.57;97372.84;4950625;28;20227;-76
2022/08/31 01:39:15;;;;;;;6.18;3.53;;;;;;;24.48;45.95;97376.16;4964690;28;20633;-76
2022/08/31 01:41:42;;;;;;;4.30;3.90;;;;;;;24.43;46.42;97379.03;4959722;28;20242;-76
2022/08/31 01:44:20;;;;;;;4.65;4.25;;;;;;;24.22;47.06;97381.78;4965273;28;20186;-76
2022/08/31 01:46:46;;;;;;;5.38;3.88;;;;;;;24.28;47.12;97375.13;4960739;28;20166;-76
2022/08/31 01:49:14;;;;;;;4.20;3.67;;;;;;;24.27;47.19;97379.69;4983690;28;20274;-76
2022/08/31 01:51:40;;;;;;;4.32;3.70;;;;;;;24.22;48.01;97376.47;4968950;28;20299;-76
2022/08/31 01:54:05;;;;;;;5.20;4.03;;;;;;;24.15;47.86;97382.31;4951981;28;20267;-76
2022/08/31 01:56:34;;;;;;;4.13;3.75;;;;;;;24.15;47.87;97381.53;4966853;28;20289;-76
2022/08/31 01:58:59;;;;;;;4.88;4.10;;;;;;;24.11;48.29;97392.84;4965965;28;20691;-76
2022/08/31 02:01:37;;;;;;;4.35;3.55;;;;;;;23.91;49.17;97389.09;4965832;28;20215;-76
2022/08/31 02:04:05;;;;;;;3.60;3.30;;;;;;;23.92;49.30;97398.63;4970342;28;20382;-76
2022/08/31 02:06:31;;;;;;;3.80;3.40;;;;;;;23.95;49.18;97401.75;4967149;28;20585;-76
2022/08/31 02:09:09;;;;;;;4.32;3.60;;;;;;;23.88;49.50;97405.69;4952778;28;20315;-76
2022/08/31 02:11:35;;;;;;;4.45;3.70;;;;;;;24.03;48.98;97400.91;4965444;28;20172;-76
2022/08/31 02:14:01;;;;;;;3.80;3.50;;;;;;;24.09;48.79;97400.38;4965022;28;20362;-76
2022/08/31 02:16:26;;;;;;;3.90;3.60;;;;;;;24.10;48.92;97395.81;4950848;28;20230;-76
2022/08/31 02:18:57;;;;;;;3.80;3.50;;;;;;;24.04;48.70;97397.91;4966323;28;20692;-76
2022/08/31 02:22:10;;;;;;;4.05;3.53;;;;;;;23.99;48.89;97398.13;4968712;28;20207;-76
2022/08/31 02:28:58;;;;;;;4.88;3.90;;;;;;;23.86;49.50;97402.59;4982504;28;20203;-76
2022/08/31 02:31:48;;;;;;;4.30;3.90;;;;;;;23.97;49.39;97402.97;4982473;28;20292;-76
2022/08/31 02:34:16;;;;;;;4.07;3.67;;;;;;;23.87;49.71;97398.84;4972304;28;20783;-76
2022/08/31 02:36:42;;;;;;;4.47;3.88;;;;;;;23.84;49.81;97402.13;4930311;28;20279;-76
2022/08/31 02:39:07;;;;;;;4.10;3.40;;;;;;;23.82;49.92;97400.91;4947489;28;20767;-76
2022/08/31 02:41:32;;;;;;;4.47;3.70;;;;;;;23.76;50.30;97400.28;4964529;28;20215;-76
2022/08/31 02:43:58;;;;;;;4.00;3.60;;;;;;;23.71;50.19;97398.59;4965402;28;20733;-76
2022/08/31 02:46:23;;;;;;;4.32;3.47;;;;;;;23.70;50.60;97398.91;4963100;28;20228;-76
2022/08/31 02:48:49;;;;;;;4.20;3.80;;;;;;;23.68;50.46;97407.25;4929070;28;20170;-76
2022/08/31 02:51:14;;;;;;;4.22;3.50;;;;;;;23.63;50.45;97401.31;4942396;28;20279;-76
2022/08/31 02:53:40;;;;;;;4.20;3.75;;;;;;;23.59;50.75;97403.84;4946120;28;20630;-76
2022/08/31 02:56:06;;;;;;;4.22;3.70;;;;;;;23.53;50.91;97405.16;4930340;28;20220;-76
2022/08/31 02:58:34;;;;;;;4.18;3.78;;;;;;;23.51;50.62;97410.00;4948787;28;20212;-76
2022/08/31 03:01:00;;;;;;;5.07;4.10;;;;;;;23.48;50.56;97414.09;4948145;28;20214;-76
2022/08/31 03:03:26;;;;;;;4.13;3.70;;;;;;;23.50;50.99;97405.81;4983625;28;20244;-76
2022/08/31 03:05:52;;;;;;;4.05;3.65;;;;;;;23.51;50.80;97407.34;4988004;28;20229;-76
2022/08/31 03:08:18;;;;;;;4.38;3.97;;;;;;;23.49;51.04;97407.69;4952844;28;20211;-76
2022/08/31 03:10:43;;;;;;;3.97;3.58;;;;;;;23.46;51.20;97415.50;4949930;28;20196;-76
2022/08/31 03:13:08;;;;;;;4.70;4.30;;;;;;;23.35;51.35;97415.13;4951191;28;20196;-76
2022/08/31 03:15:34;;;;;;;4.05;3.50;;;;;;;23.32;51.43;97416.56;4936040;28;20272;-76
2022/08/31 03:18:00;;;;;;;4.22;3.72;;;;;;;23.29;51.21;97414.53;4969292;28;20317;-76
2022/08/31 03:20:26;;;;;;;4.65;4.25;;;;;;;23.30;51.54;97417.97;4949689;28;20169;-76
2022/08/31 03:22:52;;;;;;;4.28;3.90;;;;;;;23.26;51.40;97417.06;4961035;28;20200;-76
2022/08/31 03:25:17;;;;;;;4.97;4.10;;;;;;;23.22;51.03;97416.91;4935485;28;20653;-76
2022/08/31 03:27:44;;;;;;;4.00;3.67;;;;;;;23.18;51.04;97422.09;4934161;28;20215;-76
2022/08/31 03:30:12;;;;;;;4.40;4.00;;;;;;;23.16;50.92;97418.19;4951127;28;20192;-76
2022/08/31 03:32:38;;;;;;;4.13;3.72;;;;;;;23.20;50.91;97413.78;4917915;28;20276;-76
2022/08/31 03:35:04;;;;;;;3.92;3.47;;;;;;;23.16;51.06;97407.56;4947834;28;20737;-76
2022/08/31 03:37:30;;;;;;;4.80;4.00;;;;;;;23.21;51.31;97406.63;4969543;28;20165;-76
2022/08/31 03:39:56;;;;;;;4.30;3.90;;;;;;;23.19;51.26;97401.63;4966836;28;20273;-76
2022/08/31 03:42:22;;;;;;;4.68;3.63;;;;;;;23.20;51.50;97403.16;4969093;28;20395;-76
2022/08/31 03:44:51;;;;;;;4.95;4.45;;;;;;;23.16;51.55;97400.38;4952721;28;20249;-76
2022/08/31 03:47:16;;;;;;;4.25;3.85;;;;;;;23.14;51.54;97401.81;4944445;28;20183;-76
2022/08/31 03:49:42;;;;;;;4.75;4.35;;;;;;;23.11;51.56;97402.44;4947971;28;20230;-76
2022/08/31 03:52:08;;;;;;;4.50;4.10;;;;;;;23.10;51.68;97408.84;4949942;28;20286;-76
2022/08/31 03:54:34;;;;;;;5.03;4.35;;;;;;;23.07;51.61;97409.50;4920026;28;20302;-76
2022/08/31 03:57:00;;;;;;;4.47;3.95;;;;;;;23.06;51.61;97413.25;4950861;28;20029;-76
2022/08/31 03:59:25;;;;;;;4.18;3.78;;;;;;;23.03;51.37;97411.19;4934679;28;20212;-76
2022/08/31 04:01:51;;;;;;;4.22;3.83;;;;;;;23.07;51.61;97414.81;4950937;28;20295;-76
2022/08/31 04:04:16;;;;;;;4.13;3.72;;;;;;;23.06;51.94;97418.56;4949719;28;20281;-76
2022/08/31 04:06:43;;;;;;;4.68;4.28;;;;;;;23.06;51.84;97418.56;4948918;28;20738;-76
2022/08/31 04:09:09;;;;;;;4.68;4.28;;;;;;;23.09;51.65;97412.59;4931189;28;20173;-76
2022/08/31 04:11:38;;;;;;;4.70;4.25;;;;;;;22.97;52.08;97418.56;4967499;28;20231;-76
2022/08/31 04:14:04;;;;;;;6.13;5.07;;;;;;;23.02;52.17;97421.03;4968493;28;20169;-76
2022/08/31 04:16:31;;;;;;;5.32;4.50;;;;;;;22.91;52.22;97428.59;4968553;28;20188;-76
2022/08/31 04:18:57;;;;;;;4.50;4.10;;;;;;;22.90;52.16;97429.69;4967164;28;20602;-76
2022/08/31 04:21:25;;;;;;;5.10;4.60;;;;;;;22.86;52.25;97434.09;4948509;28;20380;-76
2022/08/31 04:23:51;;;;;;;4.50;4.10;;;;;;;22.86;51.83;97436.72;4961001;28;20207;-76
2022/08/31 04:26:21;;;;;;;4.65;4.18;;;;;;;22.78;51.63;97427.69;4968198;28;20164;-76
2022/08/31 04:28:47;;;;;;;4.90;4.40;;;;;;;22.77;51.66;97426.16;4963649;28;20363;-76
2022/08/31 04:31:13;;;;;;;5.18;4.60;;;;;;;22.67;52.25;97433.66;4962350;28;20253;-76
2022/08/31 04:33:40;;;;;;;5.95;4.03;;;;;;;22.70;52.14;97443.66;4966961;28;20288;-76
2022/08/31 04:36:11;;;;;;;4.38;3.97;;;;;;;22.65;51.61;97444.59;4967773;28;20241;-76
2022/08/31 04:38:37;;;;;;;6.10;4.05;;;;;;;22.75;51.49;97441.59;4951537;28;20191;-76
2022/08/31 04:41:04;;;;;;;4.90;4.40;;;;;;;22.76;51.28;97453.00;4949540;28;20650;-76
2022/08/31 04:43:30;;;;;;;4.85;3.90;;;;;;;22.73;49.86;97445.69;4951091;28;20618;-76
2022/08/31 04:45:56;;;;;;;5.75;4.10;;;;;;;22.63;50.52;97452.09;4951451;28;20183;-76
2022/08/31 04:48:21;;;;;;;4.03;3.65;;;;;;;22.56;50.62;97449.16;4967584;28;20292;-76
2022/08/31 04:50:49;;;;;;;4.65;3.92;;;;;;;22.60;50.40;97453.53;4952481;28;20285;-76
2022/08/31 04:53:18;;;;;;;5.38;4.20;;;;;;;22.63;49.84;97449.44;4947568;28;20188;-76
2022/08/31 04:55:43;;;;;;;4.00;3.60;;;;;;;22.66;49.22;97461.31;4966391;28;20168;-76
2022/08/31 04:58:09;;;;;;;4.45;3.83;;;;;;;22.62;48.67;97461.94;4931791;28;20279;-76
2022/08/31 05:00:35;;;;;;;5.07;3.70;;;;;;;22.67;48.74;97461.00;4939568;28;20200;-76
2022/08/31 05:03:01;;;;;;;3.85;3.17;;;;;;;22.66;48.37;97454.13;4946512;28;20753;-76
2022/08/31 05:05:26;;;;;;;4.97;3.30;;;;;;;22.61;48.41;97451.63;4963491;28;20107;-76
2022/08/31 05:07:52;;;;;;;4.50;3.50;;;;;;;22.67;47.89;97457.53;4930591;28;20737;-76
2022/08/31 05:10:17;;;;;;;4.47;3.28;;;;;;;22.65;47.64;97457.84;4972483;28;20242;-76
2022/08/31 05:12:43;;;;;;;3.55;3.25;;;;;;;22.61;47.80;97465.69;4930007;28;20215;-76
2022/08/31 05:15:09;;;;;;;4.90;3.25;;;;;;;22.60;47.35;97466.00;4930760;28;20251;-76
2022/08/31 05:17:34;;;;;;;3.30;2.92;;;;;;;22.64;47.29;97472.25;4914482;28;20200;-76
2022/08/31 05:19:59;;;;;;;3.90;3.10;;;;;;;22.62;47.29;97463.81;4947703;28;20181;-76
2022/08/31 05:22:25;;;;;;;3.47;3.13;;;;;;;22.66;46.56;97475.34;4946159;28;20187;-76
2022/08/31 05:24:50;;;;;;;4.65;3.30;;;;;;;22.58;47.20;97468.19;4946860;28;20134;-76
2022/08/31 05:27:15;;;;;;;3.50;3.10;;;;;;;22.46;47.74;97470.72;4953418;28;20147;-76
2022/08/31 05:29:41;;;;;;;5.90;3.30;;;;;;;22.19;48.40;97478.66;4950106;28;20192;-76
2022/08/31 05:32:06;;;;;;;3.83;3.45;;;;;;;22.21;49.42;97476.47;4931597;28;20207;-76
2022/08/31 05:34:32;;;;;;;6.45;4.20;;;;;;;22.11;50.42;97482.09;4930134;28;20272;-76
2022/08/31 05:36:57;;;;;;;4.30;3.92;;;;;;;22.13;51.20;97481.78;4962901;28;20274;-76
2022/08/31 05:39:23;;;;;;;4.95;4.13;;;;;;;21.99;51.41;97487.25;4930225;28;20246;-76
2022/08/31 05:41:48;;;;;;;6.75;4.65;;;;;;;21.97;51.56;97492.06;4930029;28;20188;-76
2022/08/31 05:44:15;;;;;;;7.10;4.30;;;;;;;21.96;51.07;97495.81;4932911;28;20192;-76
2022/08/31 05:46:40;;;;;;;4.20;3.80;;;;;;;22.06;50.92;97498.16;4954633;28;20674;-76
2022/08/31 05:49:07;;;;;;;5.07;3.83;;;;;;;22.13;50.62;97501.13;4958289;28;20219;-76
2022/08/31 05:51:33;;;;;;;3.95;3.55;;;;;;;22.14;50.09;97502.69;4957912;28;20196;-76
2022/08/31 05:53:59;;;;;;;5.20;4.03;;;;;;;22.10;50.03;97504.38;4959853;28;20606;-76
2022/08/31 05:56:25;;;;;;;4.35;3.90;;;;;;;22.15;49.85;97500.81;4944672;28;20181;-76
2022/08/31 05:58:51;;;;;;;4.75;3.70;;;;;;;22.06;50.02;97500.81;4930853;28;20703;-76
2022/08/31 06:01:17;;;;;;;5.32;3.90;;;;;;;22.03;50.11;97512.03;4946886;28;20352;-76
2022/08/31 06:03:42;;;;;;;5.28;3.80;;;;;;;21.89;49.38;97512.94;4947124;28;20350;-76
2022/08/31 06:06:08;;;;;;;6.95;4.13;;;;;;;21.85;49.65;97512.03;4960032;28;20275;-76
2022/08/31 06:08:35;;;;;;;5.68;3.72;;;;;;;21.89;49.40;97512.94;4951117;28;20157;-76
2022/08/31 06:11:01;;;;;;;4.75;3.10;;;;;;;21.91;49.43;97515.28;4930616;28;20294;-76
2022/08/31 06:13:27;;;;;;;4.40;3.75;;;;;;;21.88;49.10;97515.91;4946874;28;20434;-76
2022/08/31 06:15:53;;;;;;;5.78;3.58;;;;;;;21.91;49.02;97514.53;4945268;28;20582;-76
2022/08/31 06:18:21;;;;;;;6.05;3.88;;;;;;;21.97;48.30;97521.22;4946266;28;20238;-75
2022/08/31 06:20:48;;;;;;;3.92;3.10;;;;;;;21.95;47.80;97521.56;4946695;28;20205;-76
2022/08/31 06:23:15;;;;;;;4.78;3.42;;;;;;;22.02;47.93;97519.22;4964773;28;20278;-76
2022/08/31 06:25:41;;;;;;;4.88;3.63;;;;;;;22.13;47.48;97524.22;4947132;28;20665;-76
2022/08/31 06:28:13;;;;;;;4.70;3.00;;;;;;;22.24;47.66;97514.84;4947491;28;20406;-76
2022/08/31 06:30:38;;;;;;;4.30;2.67;;;;;;;22.19;47.53;97518.44;4931430;28;20165;-76
2022/08/31 08:54:37;;;;;;;7.45;3.70;;;;;;;24.53;43.23;97572.19;4975456;28;20192;-75
2022/08/31 08:57:15;;;;;;;3.40;3.10;;;;;;;24.52;43.27;97579.38;4970598;28;20360;-76
2022/08/31 08:59:45;;;;;;;5.18;3.30;;;;;;;24.65;43.15;97577.59;4975549;28;20204;-75
2022/08/31 09:02:18;;;;;;;4.80;3.50;;;;;;;24.78;43.76;97583.72;4960862;28;20366;-76
2022/08/31 09:05:02;;;;;;;5.60;3.83;;;;;;;24.64;44.19;97584.81;4965992;28;20193;-76
2022/08/31 09:07:51;;;;;;;4.97;4.00;;;;;;;24.73;44.14;97587.38;4943421;28;20222;-76
2022/08/31 09:10:25;;;;;;;4.72;3.70;;;;;;;24.77;44.11;97590.16;4938603;28;20342;-76
2022/08/31 09:13:14;;;;;;;5.95;4.07;;;;;;;24.80;44.11;97590.28;4970677;28;20270;-75
2022/08/31 09:15:54;;;;;;;4.57;3.63;;;;;;;24.66;44.56;97603.13;4974859;28;20239;-76
2022/08/31 09:18:25;;;;;;;4.53;3.78;;;;;;;24.60;44.49;97593.75;4971975;28;20184;-76
2022/08/31 09:21:10;;;;;;;4.75;4.32;;;;;;;24.66;44.65;97589.81;4940332;28;20372;-76
2022/08/31 09:23:40;;;;;;;6.28;4.47;;;;;;;24.81;44.67;97591.88;4955467;28;20242;-76
2022/08/31 09:26:05;;;;;;;4.43;4.03;;;;;;;24.91;44.54;97589.88;4972142;28;20255;-76
2022/08/31 09:28:35;;;;;;;4.63;4.20;;;;;;;24.85;44.61;97587.44;4954272;28;20180;-76
2022/08/31 09:31:01;;;;;;;4.63;3.63;;;;;;;25.17;44.26;97589.63;4964474;28;20273;-76
2022/08/31 09:33:47;;;;;;;6.70;4.22;;;;;;;24.98;44.68;97592.78;4973529;28;20285;-76
2022/08/31 09:36:21;;;;;;;5.00;4.43;;;;;;;24.92;45.09;97599.44;4959828;28;20753;-76
2022/08/31 09:38:47;;;;;;;6.90;4.80;;;;;;;25.13;45.00;97599.38;4960725;28;20582;-76
2022/08/31 09:41:29;;;;;;;4.50;4.10;;;;;;;25.01;45.01;97598.22;4956697;28;20228;-76
2022/08/31 09:44:35;;;;;;;4.97;4.45;;;;;;;24.52;45.78;97595.34;4947902;28;20215;-76
2022/08/31 09:47:05;;;;;;;5.07;4.47;;;;;;;24.92;45.15;97596.78;4953655;28;20323;-76
2022/08/31 09:49:35;;;;;;;5.22;4.55;;;;;;;25.07;44.73;97596.16;4956420;28;20245;-76
2022/08/31 09:55:12;;;;;;;5.18;4.28;;;;;;;25.23;44.16;97591.75;4964749;28;20275;-76
2022/08/31 09:58:10;;;;;;;5.28;4.25;;;;;;;25.13;43.90;97592.16;4962745;28;20678;-77
2022/08/31 10:00:41;;;;;;;4.38;3.97;;;;;;;25.21;43.51;97596.63;4944821;28;20195;-76
2022/08/31 10:03:20;;;;;;;4.35;3.92;;;;;;;25.20;43.78;97595.06;4958562;28;20248;-76
2022/08/31 10:05:47;;;;;;;4.55;3.83;;;;;;;25.41;43.32;97589.72;4947825;28;20638;-76
2022/08/31 10:08:31;;;;;;;6.00;3.58;;;;;;;25.43;43.52;97586.72;4958810;28;20160;-76
2022/08/31 10:11:01;;;;;;;3.83;3.50;;;;;;;25.11;43.63;97588.28;4956474;28;20317;-75
2022/08/31 10:14:00;;;;;;;4.40;3.17;;;;;;;25.08;43.23;97587.03;4968097;28;20224;-76
2022/08/31 10:16:35;;;;;;;5.18;3.83;;;;;;;25.26;43.48;97586.88;4967120;28;20283;-76
2022/08/31 10:19:05;;;;;;;5.20;3.35;;;;;;;25.47;42.66;97587.59;4936550;28;20207;-76
2022/08/31 10:21:39;;;;;;;4.75;3.00;;;;;;;25.34;42.48;97586.78;4966350;28;20283;-75
2022/08/31 10:24:31;;;;;;;3.03;2.70;;;;;;;25.07;42.54;97585.50;4945268;28;20753;-76
2022/08/31 10:27:25;;;;;;;3.35;2.38;;;;;;;25.58;41.18;97591.41;4977218;28;20196;-76
2022/08/31 10:29:58;;;;;;;2.78;2.58;;;;;;;25.63;41.49;97590.38;4966234;28;20696;-77
2022/08/31 10:32:33;;;;;;;2.60;2.33;;;;;;;25.34;41.33;97588.69;4966937;28;20195;-76
2022/08/31 10:35:10;;;;;;;3.58;2.53;;;;;;;25.46;41.74;97596.69;4968954;28;20741;-76
2022/08/31 10:37:48;;;;;;;2.95;2.50;;;;;;;25.67;41.02;97591.28;4968989;28;20188;-76
2022/08/31 10:40:30;;;;;;;3.28;2.40;;;;;;;25.86;40.27;97597.94;4947079;28;20203;-76
2022/08/31 10:43:08;;;;;;;2.58;2.33;;;;;;;26.05;40.01;97597.41;4926325;28;20766;-76
2022/08/31 10:45:41;;;;;;;2.97;2.10;;;;;;;25.92;40.33;97592.03;4969440;28;20183;-76
2022/08/31 10:48:09;;;;;;;2.15;1.90;;;;;;;25.90;40.45;97596.94;4965560;28;20195;-76
2022/08/31 10:51:04;;;;;;;2.55;2.35;;;;;;;26.02;40.92;97595.41;4968690;28;21218;-76
2022/08/31 10:54:02;;;;;;;3.53;2.75;;;;;;;25.80;41.24;97597.38;4968523;28;20325;-76
2022/08/31 10:56:48;;;;;;;3.50;2.75;;;;;;;25.48;42.01;97591.81;4928383;28;20710;-76
2022/08/31 10:59:35;;;;;;;5.45;2.55;;;;;;;25.41;42.20;97600.38;4951459;28;20678;-76
2022/08/31 11:02:38;;;;;;;3.75;2.70;;;;;;;25.73;41.93;97594.50;4950274;28;20207;-76
2022/08/31 11:05:03;;;;;;;2.80;2.58;;;;;;;25.91;41.37;97600.38;4968376;28;20721;-76
2022/08/31 11:07:41;;;;;;;4.47;3.00;;;;;;;25.46;42.34;97595.91;4968697;28;20300;-76
2022/08/31 11:10:35;;;;;;;4.15;2.88;;;;;;;25.42;42.77;97590.47;4921357;28;20290;-76
2022/08/31 11:13:05;;;;;;;3.55;2.85;;;;;;;25.93;41.89;97593.59;4933412;28;20286;-76
2022/08/31 11:15:57;;;;;;;3.58;3.20;;;;;;;25.94;41.48;97586.38;4931986;28;20229;-76
2022/08/31 11:18:50;;;;;;;2.28;2.05;;;;;;;26.26;40.82;97584.69;4967772;28;20638;-76
2022/08/31 11:21:19;;;;;;;2.17;2.05;;;;;;;26.09;40.92;97590.28;4965006;28;20259;-75
2022/08/31 11:23:47;;;;;;;2.40;2.20;;;;;;;26.47;40.17;97589.06;4982797;28;20284;-76
2022/08/31 11:26:26;;;;;;;1.83;1.73;;;;;;;26.46;40.13;97587.50;4965956;28;20175;-75
2022/08/31 11:29:12;;;;;;;1.63;1.50;;;;;;;26.66;39.56;97589.25;4967411;28;20307;-75
2022/08/31 11:31:39;;;;;;;1.55;1.45;;;;;;;26.73;39.23;97588.66;4967715;28;20663;-74
2022/08/31 11:34:12;;;;;;;1.98;1.80;;;;;;;26.66;39.20;97586.56;4937989;28;20254;-75
2022/08/31 11:36:56;;;;;;;2.05;1.70;;;;;;;26.53;39.35;97591.16;4947430;28;20278;-74
2022/08/31 11:39:25;;;;;;;1.80;1.70;;;;;;;26.70;38.85;97584.03;4965734;28;20288;-75
2022/08/31 11:41:52;;;;;;;1.77;1.67;;;;;;;26.79;39.34;97583.88;4949452;28;20196;-75
2022/08/31 11:44:28;;;;;;;2.05;1.85;;;;;;;26.40;39.93;97583.53;4955750;28;20168;-75
2022/08/31 11:47:00;;;;;;;3.63;1.90;;;;;;;26.52;39.73;97591.50;4960259;28;20210;-74
2022/08/31 11:49:35;;;;;;;2.17;2.00;;;;;;;26.62;38.75;97591.06;4966270;28;20276;-74
2022/08/31 11:52:04;;;;;;;2.47;2.28;;;;;;;26.62;39.04;97584.91;4950153;28;20196;-74
2022/08/31 11:54:40;;;;;;;1.95;1.85;;;;;;;26.42;39.23;97586.63;4956421;28;20316;-75
2022/08/31 11:57:06;;;;;;;2.00;1.83;;;;;;;26.26;39.92;97584.69;4954079;28;20319;-74
2022/08/31 11:59:35;;;;;;;1.63;1.52;;;;;;;26.12;39.94;97581.59;4932893;28;20286;-73
2022/08/31 12:02:19;;;;;;;2.13;1.40;;;;;;;26.15;39.30;97586.28;4932630;28;20258;-74
2022/08/31 12:04:45;;;;;;;1.52;1.20;;;;;;;26.64;39.07;97582.69;4967198;28;20191;-74
2022/08/31 12:07:25;;;;;;;1.42;1.25;;;;;;;26.48;38.95;97585.28;4962789;28;20700;-74
2022/08/31 12:09:57;;;;;;;1.95;1.10;;;;;;;26.78;38.07;97582.31;4970060;28;20644;-75
2022/08/31 12:12:36;;;;;;;1.63;1.50;;;;;;;26.49;38.97;97579.63;4968163;28;20180;-75
2022/08/31 12:15:14;;;;;;;1.40;1.30;;;;;;;26.41;38.96;97585.06;4967061;28;20255;-75
2022/08/31 12:18:01;;;;;;;1.20;1.10;;;;;;;26.70;37.93;97578.69;4967479;28;20200;-75
2022/08/31 12:23:42;;;;;;;1.45;1.20;;;;;;;26.54;38.21;97586.59;4951492;28;20676;-75
2022/08/31 12:26:10;;;;;;;1.30;1.20;;;;;;;26.51;38.56;97595.28;4966839;28;20298;-75
2022/08/31 12:28:46;;;;;;;1.70;0.80;;;;;;;26.47;37.38;97584.50;4966911;28;20200;-74
2022/08/31 12:31:14;;;;;;;0.80;0.80;;;;;;;26.44;37.61;97584.41;4965541;28;20285;-75
2022/08/31 12:33:57;;;;;;;1.10;1.00;;;;;;;26.00;38.08;97568.28;4932351;28;20223;-74
2022/08/31 12:36:28;;;;;;;1.45;1.02;;;;;;;25.69;39.39;97573.06;4949203;28;20207;-74
2022/08/31 12:39:05;;;;;;;0.98;0.82;;;;;;;26.22;38.91;97567.78;4962213;28;20294;-74
2022/08/31 12:41:31;;;;;;;1.67;1.52;;;;;;;26.48;38.33;97575.38;4977970;28;20209;-75
2022/08/31 12:43:56;;;;;;;1.55;1.45;;;;;;;26.45;38.76;97573.38;4963774;28;20177;-75
2022/08/31 12:46:29;;;;;;;1.67;1.58;;;;;;;26.94;38.23;97571.66;4960182;28;20279;-75
2022/08/31 12:49:16;;;;;;;1.58;1.48;;;;;;;26.99;38.14;97558.03;4976744;28;20261;-74
2022/08/31 12:51:43;;;;;;;2.22;1.80;;;;;;;27.40;37.66;97559.50;4976723;28;20204;-74
2022/08/31 12:54:15;;;;;;;2.35;2.15;;;;;;;27.21;38.24;97556.69;4961290;28;20175;-74
2022/08/31 12:56:58;;;;;;;2.20;1.75;;;;;;;26.65;38.45;97558.31;4957080;28;20219;-74
2022/08/31 12:59:42;;;;;;;1.55;1.45;;;;;;;26.70;38.23;97550.06;4958441;28;20164;-75
2022/08/31 13:02:10;;;;;;;1.60;1.35;;;;;;;26.23;38.81;97553.31;4976434;28;20319;-74
2022/08/31 13:04:43;;;;;;;1.70;1.60;;;;;;;26.29;38.78;97551.22;4972446;28;20696;-74
2022/08/31 13:07:13;;;;;;;1.52;1.42;;;;;;;25.78;39.75;97546.25;4954939;28;20276;-74
2022/08/31 13:09:39;;;;;;;1.67;1.58;;;;;;;25.88;40.01;97545.03;4976072;28;20579;-74
2022/08/31 13:12:05;;;;;;;1.80;1.65;;;;;;;26.28;39.43;97538.97;4964188;28;20510;-75
2022/08/31 13:14:40;;;;;;;1.50;1.40;;;;;;;25.21;40.93;97534.56;4973384;28;20207;-74
2022/08/31 13:17:17;;;;;;;1.85;1.63;;;;;;;25.08;41.38;97528.44;4958424;28;20240;-74
2022/08/31 13:19:48;;;;;;;1.75;1.65;;;;;;;25.35;40.73;97520.94;4947764;28;20583;-74
2022/08/31 13:22:29;;;;;;;1.60;1.50;;;;;;;25.19;40.40;97526.09;4964870;28;20679;-74
2022/08/31 13:24:56;;;;;;;1.58;1.48;;;;;;;25.47;39.74;97526.28;4947816;28;20172;-74
2022/08/31 13:27:27;;;;;;;1.65;1.00;;;;;;;25.61;38.46;97517.94;4948119;28;20598;-74
2022/08/31 13:29:55;;;;;;;1.30;1.10;;;;;;;25.50;38.96;97517.63;4948250;28;20306;-75
2022/08/31 13:32:26;;;;;;;1.25;1.10;;;;;;;25.24;39.23;97516.03;4931141;28;20204;-74
2022/08/31 13:34:53;;;;;;;1.45;1.35;;;;;;;25.63;39.24;97514.94;4965872;28;20754;-74
2022/08/31 13:37:30;;;;;;;1.88;1.27;;;;;;;25.77;37.93;97515.34;4948256;28;20267;-74
2022/08/31 13:39:57;;;;;;;1.20;1.10;;;;;;;25.82;38.37;97512.47;4947904;28;20238;-74
2022/08/31 13:42:31;;;;;;;1.25;1.05;;;;;;;25.52;38.34;97514.63;4935196;28;20208;-74
2022/08/31 13:45:00;;;;;;;2.03;1.20;;;;;;;25.61;39.34;97518.69;4942479;28;20668;-74
2022/08/31 13:47:28;;;;;;;1.20;1.10;;;;;;;25.59;38.99;97517.50;4953813;28;20196;-74
2022/08/31 13:50:17;;;;;;;1.30;1.05;;;;;;;25.48;38.94;97519.84;4930471;28;20587;-74
2022/08/31 13:52:49;;;;;;;1.63;1.52;;;;;;;25.60;39.12;97517.16;4973465;28;20189;-74
2022/08/31 13:55:36;;;;;;;1.80;1.70;;;;;;;25.63;39.15;97514.94;4972309;28;20195;-74
2022/08/31 13:58:24;;;;;;;1.95;1.70;;;;;;;25.66;39.79;97508.94;4973767;28;20211;-76
2022/08/31 14:00:57;;;;;;;1.25;1.17;;;;;;;25.40;40.13;97508.16;4907384;28;20187;-77
2022/08/31 14:03:50;;;;;;;1.33;1.23;;;;;;;25.22;41.05;97507.59;4923844;28;20223;-76
2022/08/31 14:06:23;;;;;;;1.70;1.60;;;;;;;25.23;41.62;97503.78;4916434;28;20211;-76
2022/08/31 14:09:13;;;;;;;2.25;1.63;;;;;;;25.12;41.73;97497.38;4965622;28;20190;-77
2022/08/31 14:12:02;;;;;;;1.80;1.70;;;;;;;25.34;41.17;97501.50;4938889;28;20370;-76
2022/08/31 14:14:38;;;;;;;1.63;1.40;;;;;;;25.54;40.48;97501.72;4965437;28;20199;-76
2022/08/31 14:17:05;;;;;;;1.77;1.67;;;;;;;25.60;40.27;97500.38;4947585;28;20215;-75
2022/08/31 14:19:32;;;;;;;2.38;2.17;;;;;;;25.72;39.99;97494.25;4963834;28;20097;-75
2022/08/31 14:22:35;;;;;;;1.95;1.85;;;;;;;25.51;41.12;97497.81;4966491;28;20219;-75
2022/08/31 14:25:01;;;;;;;2.22;2.00;;;;;;;25.66;40.77;97493.72;4887614;28;20219;-76
2022/08/31 14:27:32;;;;;;;3.42;2.65;;;;;;;25.79;40.60;97497.16;4886718;28;20153;-75
2022/08/31 14:29:59;;;;;;;2.45;2.25;;;;;;;25.84;40.53;97488.13;4889849;28;20168;-75